createdAt,value
2018-11-03T00:00:44.255Z,29.57
2018-11-03T00:03:13.191Z,29.97
2018-11-03T00:05:42.082Z,29.00
2018-11-03T00:08:10.976Z,30.33
2018-11-03T00:10:39.853Z,30.17
2018-11-03T00:13:08.733Z,30.17
2018-11-03T00:15:37.762Z,32.27
2018-11-03T00:18:06.992Z,33.30
2018-11-03T00:20:35.914Z,28.20
2018-11-03T00:23:04.872Z,34.23
2018-11-03T00:25:33.840Z,34.90
2018-11-03T00:28:02.787Z,33.57
2018-11-03T00:30:31.688Z,30.90
2018-11-03T00:33:00.598Z,39.37
2018-11-03T00:35:29.483Z,30.90
2018-11-03T00:37:58.378Z,37.30
2018-11-03T00:40:27.340Z,35.23
2018-11-03T00:42:56.305Z,33.73
2018-11-03T00:45:25.194Z,30.40
2018-11-03T00:47:54.131Z,33.97
2018-11-03T00:50:23.033Z,34.63
2018-11-03T00:52:52.003Z,35.70
2018-11-03T00:55:20.875Z,28.90
2018-11-03T00:57:49.767Z,30.33
2018-11-03T01:00:19.258Z,27.97
2018-11-03T01:02:49.166Z,29.43
2018-11-03T01:05:18.113Z,31.07
2018-11-03T01:07:47.601Z,29.07
2018-11-03T01:10:17.435Z,28.27
2018-11-03T01:12:46.403Z,30.57
2018-11-03T01:15:16.491Z,29.40
2018-11-03T01:17:45.575Z,31.53
2018-11-03T01:20:15.802Z,30.67
2018-11-03T01:22:44.866Z,33.20
2018-11-03T01:25:13.820Z,30.37
2018-11-03T01:27:42.719Z,29.40
2018-11-03T01:30:14.340Z,30.67
2018-11-03T01:32:43.484Z,28.80
2018-11-03T01:35:12.245Z,27.30
2018-11-03T01:37:41.269Z,28.13
2018-11-03T01:40:12.163Z,36.47
2018-11-03T01:42:41.046Z,32.27
2018-11-03T01:45:10.142Z,31.27
2018-11-03T01:47:39.060Z,34.23
2018-11-03T01:50:10.648Z,29.40
2018-11-03T01:52:40.379Z,28.87
2018-11-03T01:55:09.371Z,26.23
2018-11-03T01:57:38.700Z,28.00
2018-11-03T02:00:08.794Z,32.43
2018-11-03T02:02:37.767Z,40.60
2018-11-03T02:05:07.703Z,31.60
2018-11-03T02:07:36.640Z,32.63
2018-11-03T02:10:07.442Z,28.30
2018-11-03T02:12:36.360Z,30.10
2018-11-03T02:15:05.411Z,31.43
2018-11-03T02:17:34.327Z,32.70
2018-11-03T02:20:03.301Z,34.20
2018-11-03T02:22:32.307Z,30.20
2018-11-03T02:25:01.198Z,29.33
2018-11-03T02:27:30.104Z,33.20
2018-11-03T02:29:59.991Z,37.43
2018-11-03T02:32:28.879Z,31.67
2018-11-03T02:34:57.797Z,39.40
2018-11-03T02:37:26.639Z,38.67
2018-11-03T02:39:55.630Z,34.00
2018-11-03T02:42:24.583Z,28.63
2018-11-03T02:44:53.541Z,31.17
2018-11-03T02:47:22.419Z,36.97
2018-11-03T02:49:51.315Z,38.13
2018-11-03T02:52:20.300Z,35.87
2018-11-03T02:54:49.206Z,41.00
2018-11-03T02:57:18.088Z,33.23
2018-11-03T02:59:47.075Z,35.63
2018-11-03T03:02:16.125Z,47.30
2018-11-03T03:04:45.071Z,36.93
2018-11-03T03:07:13.999Z,38.43
2018-11-03T03:09:42.946Z,41.90
2018-11-03T03:12:11.917Z,35.30
2018-11-03T03:14:40.831Z,35.93
2018-11-03T03:17:09.790Z,42.40
2018-11-03T03:19:38.734Z,34.53
2018-11-03T03:22:07.611Z,38.23
2018-11-03T03:24:36.496Z,37.77
2018-11-03T03:27:05.594Z,38.20
2018-11-03T03:29:34.508Z,38.73
2018-11-03T03:32:03.470Z,32.60
2018-11-03T03:34:32.365Z,36.50
2018-11-03T03:37:01.256Z,40.33
2018-11-03T03:39:30.122Z,37.10
2018-11-03T03:44:07.980Z,36.27
2018-11-03T03:46:36.934Z,38.50
2018-11-03T03:49:06.211Z,37.63
2018-11-03T03:51:35.131Z,43.03
2018-11-03T03:54:04.105Z,35.03
2018-11-03T03:56:33.052Z,34.57
2018-11-03T03:59:03.789Z,38.30
2018-11-03T04:01:32.722Z,36.60
2018-11-03T04:04:01.623Z,35.50
2018-11-03T04:06:30.583Z,38.97
2018-11-03T04:08:59.539Z,34.63
2018-11-03T04:11:28.531Z,33.73
2018-11-03T04:13:57.515Z,36.73
2018-11-03T04:16:26.412Z,36.00
2018-11-03T04:18:55.280Z,38.60
2018-11-03T04:21:28.950Z,39.37
2018-11-03T04:23:58.238Z,34.63
2018-11-03T04:26:28.776Z,37.50
2018-11-03T04:28:58.374Z,37.60
2018-11-03T04:31:27.885Z,41.70
2018-11-03T04:33:57.094Z,38.20
2018-11-03T04:36:26.166Z,35.27
2018-11-03T04:38:55.158Z,35.07
2018-11-03T04:41:24.095Z,37.33
2018-11-03T04:43:53.008Z,42.90
2018-11-03T04:46:21.963Z,40.90
2018-11-03T04:48:55.048Z,36.30
2018-11-03T04:51:23.952Z,36.63
2018-11-03T04:53:52.840Z,35.57
2018-11-03T04:56:21.753Z,40.10
2018-11-03T04:58:50.710Z,43.73
2018-11-03T05:01:19.634Z,36.80
2018-11-03T05:03:48.496Z,37.73
2018-11-03T05:06:18.406Z,36.97
2018-11-03T05:08:47.581Z,34.03
2018-11-03T05:11:16.529Z,34.53
2018-11-03T05:13:45.507Z,35.23
2018-11-03T05:16:14.402Z,30.13
2018-11-03T05:18:43.436Z,33.07
2018-11-03T05:21:12.349Z,33.30
2018-11-03T05:23:41.154Z,42.90
2018-11-03T05:26:10.046Z,37.73
2018-11-03T05:28:38.951Z,45.73
2018-11-03T05:31:07.865Z,36.67
2018-11-03T05:33:36.702Z,36.13
2018-11-03T05:36:05.830Z,34.00
2018-11-03T05:38:34.816Z,38.47
2018-11-03T05:41:03.691Z,45.00
2018-11-03T05:43:32.606Z,35.00
2018-11-03T05:46:02.498Z,30.17
2018-11-03T05:48:31.396Z,34.07
2018-11-03T05:51:00.363Z,43.17
2018-11-03T05:53:29.254Z,36.30
2018-11-03T05:55:58.174Z,35.50
2018-11-03T05:58:27.034Z,31.53
2018-11-03T06:00:55.933Z,35.17
2018-11-03T06:03:24.815Z,36.57
2018-11-03T06:05:53.700Z,31.90
2018-11-03T06:08:22.615Z,41.03
2018-11-03T06:10:51.488Z,42.20
2018-11-03T06:13:20.438Z,39.00
2018-11-03T06:15:49.376Z,39.93
2018-11-03T06:18:18.239Z,36.37
2018-11-03T06:20:47.219Z,44.53
2018-11-03T06:23:16.167Z,49.53
2018-11-03T06:25:45.086Z,39.07
2018-11-03T06:28:14.066Z,44.43
2018-11-03T06:30:42.894Z,43.23
2018-11-03T06:33:11.871Z,41.40
2018-11-03T06:35:40.786Z,36.30
2018-11-03T06:38:09.708Z,37.63
2018-11-03T06:40:38.622Z,46.03
2018-11-03T06:43:07.658Z,38.40
2018-11-03T06:45:36.587Z,36.70
2018-11-03T06:48:06.167Z,38.43
2018-11-03T06:50:35.073Z,36.80
2018-11-03T06:53:03.979Z,38.97
2018-11-03T06:55:32.907Z,44.33
2018-11-03T06:58:01.999Z,37.30
2018-11-03T07:00:31.042Z,37.43
2018-11-03T07:02:59.949Z,40.03
2018-11-03T07:05:28.839Z,39.90
2018-11-03T07:07:57.707Z,39.87
2018-11-03T07:10:26.699Z,37.40
2018-11-03T07:12:55.666Z,35.77
2018-11-03T07:15:24.552Z,40.13
2018-11-03T07:17:53.370Z,42.10
2018-11-03T07:20:22.262Z,38.23
2018-11-03T07:22:51.165Z,37.47
2018-11-03T07:25:20.046Z,46.23
2018-11-03T07:27:48.953Z,34.53
2018-11-03T07:30:17.950Z,40.83
2018-11-03T07:32:46.880Z,40.13
2018-11-03T07:35:15.815Z,39.43
2018-11-03T07:37:44.777Z,44.57
2018-11-03T07:40:13.602Z,51.77
2018-11-03T07:42:42.935Z,36.93
2018-11-03T07:45:11.800Z,39.73
2018-11-03T07:47:41.118Z,37.40
2018-11-03T07:50:11.864Z,38.80
2018-11-03T07:52:41.354Z,37.50
2018-11-03T07:55:11.701Z,35.00
2018-11-03T07:57:40.998Z,34.90
2018-11-03T08:00:12.345Z,34.50
2018-11-03T08:02:41.303Z,50.50
2018-11-03T08:05:11.658Z,36.37
2018-11-03T08:07:40.627Z,39.30
2018-11-03T08:10:10.759Z,35.57
2018-11-03T08:12:39.738Z,40.40
2018-11-03T08:15:09.971Z,35.10
2018-11-03T08:17:39.298Z,34.67
2018-11-03T08:20:10.041Z,35.30
2018-11-03T08:22:39.345Z,36.53
2018-11-03T08:25:08.602Z,35.47
2018-11-03T08:27:37.615Z,34.33
2018-11-03T08:30:10.041Z,35.07
2018-11-03T08:32:39.283Z,32.70
2018-11-03T08:35:09.420Z,32.50
2018-11-03T08:37:38.682Z,39.67
2018-11-03T08:40:09.854Z,36.70
2018-11-03T08:42:39.136Z,35.40
2018-11-03T08:45:08.639Z,32.53
2018-11-03T08:47:37.598Z,36.13
2018-11-03T08:50:08.871Z,33.00
2018-11-03T08:52:37.883Z,38.93
2018-11-03T08:55:08.525Z,38.87
2018-11-03T08:57:37.423Z,34.27
2018-11-03T09:00:09.911Z,32.90
2018-11-03T09:02:39.066Z,30.13
2018-11-03T09:05:08.661Z,34.13
2018-11-03T09:07:38.066Z,34.37
2018-11-03T09:10:11.005Z,28.53
2018-11-03T09:12:39.941Z,27.63
2018-11-03T09:15:11.093Z,26.10
2018-11-03T09:17:41.023Z,28.93
2018-11-03T09:20:11.637Z,29.87
2018-11-03T09:22:40.947Z,30.00
2018-11-03T09:25:12.504Z,27.90
2018-11-03T09:27:42.413Z,26.47
2018-11-03T09:30:15.523Z,30.37
2018-11-03T09:32:44.450Z,32.43
2018-11-03T09:35:14.502Z,27.20
2018-11-03T09:37:43.510Z,29.23
2018-11-03T09:40:15.151Z,34.27
2018-11-03T09:42:45.184Z,29.53
2018-11-03T09:45:14.462Z,27.10
2018-11-03T09:47:43.874Z,33.90
2018-11-03T09:50:14.322Z,25.90
2018-11-03T09:52:43.592Z,23.00
2018-11-03T09:55:15.094Z,27.63
2018-11-03T09:57:44.125Z,25.90
2018-11-03T10:00:15.198Z,24.80
2018-11-03T10:02:44.075Z,30.90
2018-11-03T10:05:13.861Z,26.90
2018-11-03T10:07:42.818Z,23.13
2018-11-03T10:10:14.220Z,28.57
2018-11-03T10:12:43.310Z,29.53
2018-11-03T10:15:13.682Z,30.87
2018-11-03T10:17:43.115Z,28.47
2018-11-03T10:20:12.043Z,34.10
2018-11-03T10:22:41.045Z,24.43
2018-11-03T10:25:14.593Z,29.40
2018-11-03T10:27:44.240Z,25.83
2018-11-03T10:30:14.662Z,23.70
2018-11-03T10:32:43.830Z,27.93
2018-11-03T10:35:13.329Z,27.07
2018-11-03T10:37:42.521Z,25.83
2018-11-03T10:40:13.972Z,32.07
2018-11-03T10:42:43.365Z,30.80
2018-11-03T10:45:13.622Z,20.40
2018-11-03T10:47:43.441Z,25.30
2018-11-03T10:50:19.284Z,23.67
2018-11-03T10:55:45.327Z,24.63
2018-11-03T10:58:14.216Z,25.03
2018-11-03T11:00:48.528Z,21.10
2018-11-03T11:03:22.771Z,27.03
2018-11-03T11:05:52.654Z,24.40
2018-11-03T11:08:27.750Z,23.63
2018-11-03T11:11:02.050Z,28.33
2018-11-03T11:13:32.549Z,21.70
2018-11-03T11:16:01.648Z,27.20
2018-11-03T11:18:30.513Z,23.83
2018-11-03T11:20:59.428Z,18.33
2018-11-03T11:23:28.359Z,22.83
2018-11-03T11:25:57.307Z,22.57
2018-11-03T11:28:26.323Z,22.10
2018-11-03T11:30:55.207Z,24.97
2018-11-03T11:33:24.083Z,19.60
2018-11-03T11:35:52.974Z,24.63
2018-11-03T11:38:21.864Z,27.07
2018-11-03T11:40:50.768Z,25.70
2018-11-03T11:43:19.740Z,18.87
2018-11-03T11:45:48.514Z,21.40
2018-11-03T11:48:17.467Z,20.20
2018-11-03T11:50:46.567Z,24.13
2018-11-03T11:53:15.467Z,20.50
2018-11-03T11:55:44.369Z,21.80
2018-11-03T11:58:13.342Z,19.00
2018-11-03T12:00:42.315Z,19.13
2018-11-03T12:03:11.315Z,31.33
2018-11-03T12:05:40.268Z,16.33
2018-11-03T12:08:09.146Z,22.20
2018-11-03T12:10:38.051Z,20.90
2018-11-03T12:13:06.910Z,16.23
2018-11-03T12:15:35.926Z,21.80
2018-11-03T12:18:04.999Z,21.73
2018-11-03T12:20:34.583Z,16.67
2018-11-03T12:23:03.631Z,15.77
2018-11-03T12:25:32.550Z,20.93
2018-11-03T12:28:01.401Z,19.37
2018-11-03T12:30:30.278Z,18.53
2018-11-03T12:32:59.173Z,19.70
2018-11-03T12:35:28.103Z,18.33
2018-11-03T12:37:57.167Z,18.07
2018-11-03T12:40:26.070Z,13.93
2018-11-03T12:42:54.903Z,15.20
2018-11-03T12:45:23.783Z,19.60
2018-11-03T12:47:52.709Z,18.13
2018-11-03T12:50:21.562Z,18.93
2018-11-03T12:52:50.417Z,18.20
2018-11-03T12:55:19.324Z,20.97
2018-11-03T12:57:48.346Z,20.17
2018-11-03T13:00:17.222Z,19.13
2018-11-03T13:02:46.631Z,17.83
2018-11-03T13:05:15.708Z,14.00
2018-11-03T13:07:45.538Z,16.20
2018-11-03T13:10:14.539Z,18.43
2018-11-03T13:12:43.627Z,19.40
2018-11-03T13:15:13.452Z,21.10
2018-11-03T13:17:42.375Z,17.13
2018-11-03T13:20:12.755Z,19.50
2018-11-03T13:22:42.326Z,13.93
2018-11-03T13:25:11.767Z,15.53
2018-11-03T13:27:41.374Z,14.23
2018-11-03T13:30:12.726Z,21.20
2018-11-03T13:32:41.665Z,18.43
2018-11-03T13:35:12.015Z,20.20
2018-11-03T13:37:41.239Z,13.70
2018-11-03T13:40:11.669Z,29.20
2018-11-03T13:42:40.758Z,16.97
2018-11-03T13:45:10.268Z,24.87
2018-11-03T13:47:39.674Z,18.73
2018-11-03T13:50:14.353Z,21.17
2018-11-03T13:52:47.615Z,17.20
2018-11-03T13:55:16.492Z,16.80
2018-11-03T13:57:46.308Z,15.30
2018-11-03T14:00:16.493Z,18.47
2018-11-03T14:02:46.303Z,15.57
2018-11-03T14:05:15.115Z,20.90
2018-11-03T14:07:44.106Z,16.57
2018-11-03T14:10:15.258Z,16.70
2018-11-03T14:12:44.929Z,18.20
2018-11-03T14:15:15.231Z,16.83
2018-11-03T14:17:44.147Z,16.33
2018-11-03T14:20:14.159Z,16.13
2018-11-03T14:22:43.973Z,17.90
2018-11-03T14:25:15.118Z,14.33
2018-11-03T14:27:45.269Z,12.13
2018-11-03T14:30:14.439Z,16.93
2018-11-03T14:32:43.530Z,12.90
2018-11-03T14:35:13.439Z,18.37
2018-11-03T14:37:42.330Z,16.10
2018-11-03T14:40:16.551Z,18.13
2018-11-03T14:42:46.159Z,14.93
2018-11-03T14:45:16.356Z,15.97
2018-11-03T14:47:45.205Z,16.07
2018-11-03T14:50:14.120Z,11.13
2018-11-03T14:52:43.753Z,19.77
2018-11-03T14:55:13.372Z,14.10
2018-11-03T14:57:42.289Z,14.93
2018-11-03T15:00:13.132Z,15.83
2018-11-03T15:02:42.117Z,22.67
2018-11-03T15:05:11.842Z,20.40
2018-11-03T15:07:40.715Z,22.67
2018-11-03T15:10:11.403Z,25.80
2018-11-03T15:12:41.026Z,19.00
2018-11-03T15:15:12.154Z,25.37
2018-11-03T15:17:41.096Z,17.57
2018-11-03T15:20:11.015Z,14.10
2018-11-03T15:22:40.268Z,20.97
2018-11-03T15:25:10.592Z,18.30
2018-11-03T15:27:41.112Z,26.93
2018-11-03T15:30:11.656Z,15.80
2018-11-03T15:32:41.355Z,17.63
2018-11-03T15:35:11.133Z,21.90
2018-11-03T15:37:40.154Z,20.67
2018-11-03T15:40:11.784Z,14.50
2018-11-03T15:42:40.751Z,19.80
2018-11-03T15:45:13.116Z,17.30
2018-11-03T15:47:42.500Z,15.33
2018-11-03T15:50:11.882Z,17.40
2018-11-03T15:52:40.920Z,13.27
2018-11-03T15:55:09.810Z,21.30
2018-11-03T15:57:38.662Z,18.93
2018-11-03T16:00:11.758Z,21.57
2018-11-03T16:02:40.911Z,17.67
2018-11-03T16:05:09.904Z,21.03
2018-11-03T16:07:38.880Z,20.07
2018-11-03T16:10:08.607Z,20.83
2018-11-03T16:12:37.689Z,15.20
2018-11-03T16:15:08.348Z,30.93
2018-11-03T16:17:37.478Z,33.83
2018-11-03T16:20:07.775Z,19.53
2018-11-03T16:22:36.994Z,21.90
2018-11-03T16:25:07.770Z,25.10
2018-11-03T16:27:36.955Z,25.70
2018-11-03T16:30:08.826Z,23.10
2018-11-03T16:32:38.063Z,21.80
2018-11-03T16:35:07.134Z,26.10
2018-11-03T16:37:36.262Z,26.70
2018-11-03T16:40:06.166Z,21.77
2018-11-03T16:42:35.091Z,22.77
2018-11-03T16:45:04.161Z,22.17
2018-11-03T16:47:33.078Z,22.17
2018-11-03T16:50:01.970Z,22.87
2018-11-03T16:52:30.965Z,28.43
2018-11-03T16:54:59.880Z,23.63
2018-11-03T16:57:28.859Z,24.87
2018-11-03T16:59:58.270Z,26.90
2018-11-03T17:02:27.258Z,20.27
2018-11-03T17:04:56.271Z,24.23
2018-11-03T17:07:26.086Z,26.60
2018-11-03T17:09:55.039Z,49.73
2018-11-03T17:12:23.985Z,175.53
2018-11-03T17:14:52.907Z,492.27
2018-11-03T17:17:21.772Z,297.40
2018-11-03T17:19:50.698Z,155.63
2018-11-03T17:22:19.557Z,112.77
2018-11-03T17:24:48.476Z,119.40
2018-11-03T17:27:17.347Z,112.23
2018-11-03T17:29:46.255Z,101.33
2018-11-03T17:32:15.143Z,66.73
2018-11-03T17:34:44.000Z,51.40
2018-11-03T17:37:12.920Z,51.23
2018-11-03T17:39:41.871Z,54.80
2018-11-03T17:42:10.847Z,48.70
2018-11-03T17:44:39.754Z,42.90
2018-11-03T17:47:08.839Z,47.50
2018-11-03T17:49:37.840Z,36.77
2018-11-03T17:52:07.870Z,37.90
2018-11-03T17:54:36.826Z,46.20
2018-11-03T17:57:05.817Z,37.13
2018-11-03T17:59:34.626Z,165.17
2018-11-03T18:02:03.600Z,468.43
2018-11-03T18:04:32.554Z,454.43
2018-11-03T18:07:01.467Z,385.03
2018-11-03T18:09:30.379Z,224.93
2018-11-03T18:11:59.534Z,184.57
2018-11-03T18:14:28.462Z,84.90
2018-11-03T18:16:57.407Z,53.53
2018-11-03T18:19:26.262Z,56.83
2018-11-03T18:21:55.199Z,47.03
2018-11-03T18:24:24.075Z,44.83
2018-11-03T18:26:52.930Z,38.40
2018-11-03T18:29:21.820Z,45.33
2018-11-03T18:31:50.754Z,42.43
2018-11-03T18:34:19.940Z,40.77
2018-11-03T18:36:48.906Z,39.83
2018-11-03T18:39:17.826Z,46.70
2018-11-03T18:41:46.869Z,40.63
2018-11-03T18:44:16.242Z,40.60
2018-11-03T18:46:45.412Z,45.63
2018-11-03T18:49:14.255Z,36.00
2018-11-03T18:51:43.278Z,42.67
2018-11-03T18:54:12.220Z,37.50
2018-11-03T18:56:41.855Z,44.87
2018-11-03T18:59:10.847Z,36.87
2018-11-03T19:01:39.762Z,32.20
2018-11-03T19:04:08.654Z,49.30
2018-11-03T19:06:37.534Z,43.23
2018-11-03T19:09:07.746Z,59.43
2018-11-03T19:11:36.571Z,54.50
2018-11-03T19:14:05.719Z,52.83
2018-11-03T19:16:34.715Z,56.53
2018-11-03T19:19:03.615Z,48.00
2018-11-03T19:21:32.515Z,52.60
2018-11-03T19:24:01.406Z,40.33
2018-11-03T19:26:30.387Z,44.17
2018-11-03T19:28:59.367Z,58.80
2018-11-03T19:31:28.306Z,52.53
2018-11-03T19:33:59.697Z,43.80
2018-11-03T19:36:28.679Z,59.53
2018-11-03T19:38:57.611Z,49.27
2018-11-03T19:41:26.621Z,55.37
2018-11-03T19:43:55.386Z,51.00
2018-11-03T19:46:24.294Z,54.10
2018-11-03T19:48:53.230Z,54.67
2018-11-03T19:51:22.150Z,46.13
2018-11-03T19:53:53.293Z,55.67
2018-11-03T19:56:22.238Z,44.97
2018-11-03T19:58:51.292Z,42.20
2018-11-03T20:01:20.738Z,49.87
2018-11-03T20:03:49.567Z,44.90
2018-11-03T20:06:18.491Z,44.33
2018-11-03T20:08:47.355Z,50.80
2018-11-03T20:11:16.321Z,51.30
2018-11-03T20:13:45.271Z,54.90
2018-11-03T20:16:14.128Z,52.73
2018-11-03T20:18:43.103Z,58.03
2018-11-03T20:21:12.012Z,49.53
2018-11-03T20:23:40.907Z,62.37
2018-11-03T20:26:09.915Z,41.30
2018-11-03T20:28:38.800Z,45.77
2018-11-03T20:31:08.351Z,48.13
2018-11-03T20:33:37.349Z,54.03
2018-11-03T20:36:06.291Z,55.10
2018-11-03T20:38:35.184Z,51.23
2018-11-03T20:41:04.056Z,55.03
2018-11-03T20:43:32.959Z,52.73
2018-11-03T20:46:01.833Z,55.70
2018-11-03T20:48:30.743Z,52.40
2018-11-03T20:51:04.970Z,52.47
2018-11-03T20:53:33.838Z,50.53
2018-11-03T20:56:02.832Z,49.60
2018-11-03T20:58:31.762Z,49.27
2018-11-03T21:01:00.735Z,51.80
2018-11-03T21:03:29.604Z,48.73
2018-11-03T21:05:58.487Z,53.63
2018-11-03T21:08:27.376Z,47.90
2018-11-03T21:10:56.379Z,57.83
2018-11-03T21:13:25.547Z,48.77
2018-11-03T21:15:54.458Z,56.77
2018-11-03T21:18:23.332Z,52.63
2018-11-03T21:20:52.266Z,48.23
2018-11-03T21:23:21.187Z,46.27
2018-11-03T21:25:50.435Z,53.07
2018-11-03T21:28:19.314Z,58.17
2018-11-03T21:30:48.311Z,55.40
2018-11-03T21:33:17.337Z,54.40
2018-11-03T21:35:46.114Z,53.97
2018-11-03T21:40:23.674Z,150.67
2018-11-03T21:45:01.491Z,158.67
2018-11-03T21:47:30.387Z,104.60
2018-11-03T21:49:59.291Z,101.13
2018-11-03T21:52:28.286Z,123.43
2018-11-03T21:54:57.158Z,116.13
2018-11-03T21:57:26.066Z,95.27
2018-11-03T21:59:54.960Z,68.40
2018-11-03T22:02:23.822Z,61.70
2018-11-03T22:04:52.720Z,66.80
2018-11-03T22:07:21.602Z,64.50
2018-11-03T22:09:50.563Z,57.50
2018-11-03T22:12:19.558Z,48.03
2018-11-03T22:14:48.476Z,60.63
2018-11-03T22:17:17.370Z,54.53
2018-11-03T22:19:46.250Z,44.60
2018-11-03T22:22:15.221Z,59.60
2018-11-03T22:24:44.115Z,44.70
2018-11-03T22:27:13.434Z,41.57
2018-11-03T22:29:42.314Z,42.80
2018-11-03T22:32:11.202Z,44.27
2018-11-03T22:34:40.138Z,36.17
2018-11-03T22:37:09.146Z,39.67
2018-11-03T22:39:37.987Z,40.73
2018-11-03T22:42:07.002Z,44.10
2018-11-03T22:44:35.867Z,55.73
2018-11-03T22:47:04.795Z,52.23
2018-11-03T22:49:33.641Z,45.27
2018-11-03T22:52:05.886Z,56.13
2018-11-03T22:54:35.600Z,47.33
2018-11-03T22:57:04.656Z,55.53
2018-11-03T22:59:33.531Z,60.03
2018-11-03T23:02:02.438Z,45.93
2018-11-03T23:04:31.352Z,48.57
2018-11-03T23:07:00.496Z,43.17
2018-11-03T23:09:29.370Z,48.63
2018-11-03T23:11:58.264Z,48.33
2018-11-03T23:14:27.218Z,41.73
2018-11-03T23:16:56.055Z,52.37
2018-11-03T23:19:24.947Z,48.30
2018-11-03T23:21:53.835Z,55.57
2018-11-03T23:24:22.714Z,46.70
2018-11-03T23:26:51.881Z,56.23
2018-11-03T23:29:20.868Z,50.27
2018-11-03T23:31:49.767Z,47.77
2018-11-03T23:34:18.674Z,50.47
2018-11-03T23:36:47.569Z,55.43
2018-11-03T23:39:16.386Z,48.53
2018-11-03T23:41:45.371Z,58.77
2018-11-03T23:44:14.782Z,47.03
2018-11-03T23:46:43.713Z,46.83
2018-11-03T23:49:12.643Z,44.07
2018-11-03T23:51:41.506Z,52.57
2018-11-03T23:54:10.418Z,52.37
2018-11-03T23:56:39.301Z,62.37
2018-11-03T23:59:08.264Z,49.53
